Time;durP1;ratioP1;P1;durP2;ratioP2;P2;SDS_P1;SDS_P2;PMS_P1;PMS_P2;Temp;Humidity;BMP_temperature;BMP_pressure;BME280_temperature;BME280_humidity;BME280_pressure;Samples;Min_cycle;Max_cycle;Signal;HPM_P1;HPM_P2
2022/08/06 00:01:48;;;;;;;9.93;4.70;;;11.40;82.70;;;;;;5014198;28;20456;-85
2022/08/06 00:04:24;;;;;;;5.80;5.07;;;11.50;81.20;;;;;;5020470;28;20473;-85
2022/08/06 00:07:03;;;;;;;;;;;;;;;;;;;;;
2022/08/06 00:09:37;;;;;;;7.70;5.97;;;11.70;81.50;;;;;;5018890;28;20476;-85
2022/08/06 00:12:21;;;;;;;8.67;5.97;;;11.40;81.80;;;;;;5021190;28;20831;-85
2022/08/06 00:15:03;;;;;;;7.33;5.40;;;11.40;82.50;;;;;;5020665;28;20949;-85
2022/08/06 00:17:31;;;;;;;9.67;6.53;;;11.30;83.20;;;;;;5021461;28;20480;-86
2022/08/06 00:20:14;;;;;;;10.40;7.67;;;11.20;85.70;;;;;;5021538;28;20449;-85
2022/08/06 00:22:50;;;;;;;16.70;10.27;;;11.10;85.70;;;;;;5022382;28;20680;-85
2022/08/06 00:25:27;;;;;;;15.63;14.60;;;11.00;85.90;;;;;;5021906;28;20458;-85
2022/08/06 00:27:59;;;;;;;23.63;22.23;;;11.00;87.10;;;;;;5022914;28;20507;-86
2022/08/06 00:33:19;;;;;;;58.77;56.37;;;10.80;90.10;;;;;;5019370;28;20496;-86
2022/08/06 00:35:53;;;;;;;75.83;72.90;;;10.70;91.30;;;;;;5020458;28;20476;-85
2022/08/06 00:38:22;;;;;;;89.67;86.07;;;10.60;91.80;;;;;;5020142;28;20489;-87
2022/08/06 00:41:03;;;;;;;108.17;103.77;;;10.50;93.30;;;;;;5021753;28;20453;-85
2022/08/06 00:43:32;;;;;;;114.17;109.47;;;10.70;93.10;;;;;;5021230;28;20472;-86
2022/08/06 00:46:01;;;;;;;98.20;94.60;;;10.70;93.20;;;;;;5021199;28;20503;-85
2022/08/06 00:48:28;;;;;;;94.67;91.00;;;10.70;93.00;;;;;;5021889;28;20445;-85
2022/08/06 00:50:55;;;;;;;82.40;78.80;;;10.70;93.10;;;;;;5021962;28;20519;-85
2022/08/06 00:53:24;;;;;;;76.67;72.97;;;10.60;93.00;;;;;;5021519;28;20571;-85
2022/08/06 00:55:51;;;;;;;67.43;64.67;;;10.60;92.90;;;;;;5021595;28;21008;-85
2022/08/06 00:58:25;;;;;;;54.43;52.17;;;10.60;93.20;;;;;;5020501;28;20503;-89
2022/08/06 01:00:52;;;;;;;59.83;57.13;;;10.50;93.20;;;;;;5001596;28;20454;-85
2022/08/06 01:03:19;;;;;;;69.60;66.70;;;10.60;93.20;;;;;;5001987;28;21041;-85
2022/08/06 01:05:46;;;;;;;67.93;65.07;;;10.50;93.40;;;;;;5020525;28;20915;-85
2022/08/06 01:08:14;;;;;;;107.83;104.00;;;10.40;93.30;;;;;;5021044;28;20449;-85
2022/08/06 01:10:41;;;;;;;96.87;93.17;;;10.30;93.60;;;;;;5020345;28;20480;-85
2022/08/06 01:13:07;;;;;;;71.27;68.20;;;10.30;94.20;;;;;;5019958;28;20480;-85
2022/08/06 01:15:40;;;;;;;86.97;83.27;;;10.30;93.80;;;;;;5020096;28;20488;-85
2022/08/06 01:18:11;;;;;;;122.67;118.20;;;10.20;93.90;;;;;;5020241;28;20449;-85
2022/08/06 01:20:52;;;;;;;142.93;137.90;;;10.20;95.10;;;;;;5021236;28;20547;-85
2022/08/06 01:23:36;;;;;;;204.60;197.50;;;10.10;94.40;;;;;;5020365;28;20496;-85
2022/08/06 01:26:24;;;;;;;221.67;213.67;;;10.10;95.20;;;;;;5020632;28;20499;-85
2022/08/06 01:28:59;;;;;;;216.07;208.50;;;10.10;96.60;;;;;;5020199;28;20554;-84
2022/08/06 01:31:33;;;;;;;186.87;180.20;;;10.20;96.40;;;;;;5020122;28;20451;-84
2022/08/06 01:34:10;;;;;;;125.53;120.83;;;10.20;96.40;;;;;;5019871;28;20469;-90
2022/08/06 01:36:46;;;;;;;142.37;137.03;;;10.10;95.60;;;;;;5019319;28;20451;-86
2022/08/06 01:39:38;;;;;;;175.90;169.40;;;10.20;95.90;;;;;;5019223;28;20553;-88
2022/08/06 01:42:12;;;;;;;167.70;161.63;;;10.10;96.40;;;;;;5019290;28;20911;-85
2022/08/06 01:44:54;;;;;;;201.73;194.73;;;10.10;95.60;;;;;;5019238;28;20586;-85
2022/08/06 01:47:26;;;;;;;134.27;129.33;;;10.10;96.70;;;;;;5019898;28;20487;-84
2022/08/06 01:49:58;;;;;;;201.77;194.83;;;10.00;96.60;;;;;;5023441;28;20499;-84
2022/08/06 01:52:30;;;;;;;216.37;208.57;;;10.00;96.90;;;;;;5024104;28;20453;-85
2022/08/06 01:54:59;;;;;;;218.83;211.27;;;9.90;98.00;;;;;;5023410;28;20460;-85
2022/08/06 01:57:28;;;;;;;191.90;185.10;;;10.10;97.70;;;;;;5023498;28;20537;-85
2022/08/06 02:00:02;;;;;;;170.67;164.77;;;10.10;97.00;;;;;;5024116;28;20449;-84
2022/08/06 02:02:30;;;;;;;156.97;151.13;;;10.10;97.60;;;;;;5023290;28;20480;-85
2022/08/06 02:05:11;;;;;;;;;;;;;;;;;;;;;
2022/08/06 02:07:55;;;;;;;158.60;153.10;;;10.20;97.20;;;;;;5023183;28;20490;-84
2022/08/06 02:10:26;;;;;;;176.10;169.17;;;10.10;96.70;;;;;;5023575;28;20589;-85
2022/08/06 02:13:27;;;;;;;220.13;212.53;;;10.00;97.10;;;;;;5024395;28;20520;-84
2022/08/06 02:16:03;;;;;;;223.83;216.23;;;9.90;98.20;;;;;;5020954;28;20493;-85
2022/08/06 02:18:34;;;;;;;234.40;226.33;;;9.80;98.50;;;;;;5022927;28;20484;-84
2022/08/06 02:21:03;;;;;;;279.13;269.47;;;9.80;99.00;;;;;;5023086;28;20449;-88
2022/08/06 02:23:31;;;;;;;262.30;253.17;;;9.70;99.10;;;;;;5022621;28;20473;-85
2022/08/06 02:26:05;;;;;;;305.60;294.97;;;9.70;99.60;;;;;;5022773;28;20900;-85
2022/08/06 02:28:36;;;;;;;318.50;307.07;;;9.70;99.90;;;;;;5021877;28;20536;-85
2022/08/06 02:31:05;;;;;;;311.07;300.27;;;9.70;99.90;;;;;;5019259;28;20473;-80
2022/08/06 02:33:32;;;;;;;394.30;379.47;;;9.60;99.90;;;;;;5002632;28;20470;-80
2022/08/06 02:36:05;;;;;;;459.53;441.03;;;9.70;99.90;;;;;;4997476;28;20454;-79
2022/08/06 02:38:36;;;;;;;468.07;448.67;;;9.60;99.90;;;;;;5008328;28;20441;-79
2022/08/06 02:41:16;;;;;;;371.87;358.27;;;9.60;99.90;;;;;;5016484;28;20473;-80
2022/08/06 02:43:50;;;;;;;300.87;289.03;;;9.70;99.90;;;;;;5004338;28;20468;-79
2022/08/06 02:46:24;;;;;;;344.10;331.80;;;9.70;99.90;;;;;;5016989;28;20464;-79
2022/08/06 02:48:54;;;;;;;351.77;339.07;;;9.60;99.90;;;;;;5008417;28;20449;-80
2022/08/06 02:51:26;;;;;;;496.37;475.20;;;9.60;99.90;;;;;;5003654;28;20477;-79
2022/08/06 02:54:25;;;;;;;525.20;502.50;;;9.60;99.90;;;;;;5016875;28;20663;-88
2022/08/06 02:56:55;;;;;;;496.53;475.83;;;9.60;99.90;;;;;;5013169;28;20457;-86
2022/08/06 02:59:40;;;;;;;474.20;453.60;;;9.70;99.90;;;;;;5022662;28;20441;-80
2022/08/06 03:02:30;;;;;;;358.63;345.07;;;9.80;99.90;;;;;;5017560;28;20459;-81
2022/08/06 03:05:14;;;;;;;355.30;342.73;;;9.80;99.90;;;;;;5018031;28;21028;-81
2022/08/06 03:08:01;;;;;;;434.37;417.87;;;9.70;99.90;;;;;;5002010;28;20997;-81
2022/08/06 03:10:56;;;;;;;551.20;526.70;;;9.70;99.90;;;;;;4997601;28;20616;-81
2022/08/06 03:13:30;;;;;;;492.63;472.63;;;9.60;99.90;;;;;;4997801;28;20466;-81
2022/08/06 03:16:11;;;;;;;448.07;430.97;;;9.60;99.90;;;;;;4997955;28;20529;-81
2022/08/06 03:18:57;;;;;;;377.60;362.93;;;9.50;99.90;;;;;;5011821;28;20457;-81
2022/08/06 03:21:48;;;;;;;292.80;282.57;;;9.60;99.90;;;;;;5016793;28;20512;-81
2022/08/06 03:24:25;;;;;;;259.90;250.60;;;9.70;99.90;;;;;;5016941;28;20473;-80
2022/08/06 03:27:04;;;;;;;227.07;219.13;;;9.80;99.90;;;;;;5017532;28;20484;-80
2022/08/06 03:29:36;;;;;;;249.67;240.03;;;9.70;99.90;;;;;;5015690;28;20480;-81
2022/08/06 03:32:04;;;;;;;326.50;314.83;;;9.60;99.90;;;;;;5015867;28;20965;-86
2022/08/06 03:34:35;;;;;;;445.37;428.60;;;9.50;99.90;;;;;;5017559;28;20533;-84
2022/08/06 03:37:18;;;;;;;;;;;;;;;;;;;;;
2022/08/06 03:39:47;;;;;;;426.23;410.80;;;9.50;99.90;;;;;;5017871;28;20892;-78
2022/08/06 03:42:13;;;;;;;467.23;448.83;;;9.50;99.90;;;;;;5015174;28;20453;-78
2022/08/06 03:44:40;;;;;;;407.63;392.83;;;9.60;99.90;;;;;;5015128;28;20453;-78
2022/08/06 03:47:12;;;;;;;501.47;481.60;;;9.60;99.90;;;;;;5014817;28;20461;-78
2022/08/06 03:49:45;;;;;;;467.70;449.93;;;9.60;99.90;;;;;;5015642;28;20445;-78
2022/08/06 03:52:17;;;;;;;412.73;396.87;;;9.60;99.90;;;;;;5015376;28;20437;-77
2022/08/06 03:54:48;;;;;;;444.70;427.30;;;9.70;99.90;;;;;;5015123;28;20476;-78
2022/08/06 03:57:19;;;;;;;449.63;432.10;;;9.70;99.90;;;;;;5014941;28;20441;-78
2022/08/06 03:59:49;;;;;;;323.03;311.73;;;9.70;99.90;;;;;;5014507;28;20438;-78
2022/08/06 04:02:16;;;;;;;276.87;267.37;;;9.80;99.90;;;;;;5014970;28;20446;-78
2022/08/06 04:04:46;;;;;;;254.43;245.23;;;9.80;99.90;;;;;;5013930;28;20450;-77
2022/08/06 04:07:14;;;;;;;222.47;215.07;;;9.90;99.90;;;;;;5014834;28;20460;-78
2022/08/06 04:09:43;;;;;;;210.37;203.20;;;10.00;99.90;;;;;;5014544;28;20455;-78
2022/08/06 04:12:10;;;;;;;230.73;221.87;;;10.10;99.90;;;;;;5014717;28;20449;-78
2022/08/06 04:14:37;;;;;;;220.93;212.90;;;10.00;99.90;;;;;;5014238;28;20972;-78
2022/08/06 04:17:05;;;;;;;260.83;251.60;;;10.00;99.90;;;;;;5013929;28;20620;-79
2022/08/06 04:19:34;;;;;;;341.27;328.90;;;9.90;99.90;;;;;;5020114;28;20456;-86
2022/08/06 04:22:04;;;;;;;401.87;386.67;;;9.90;99.90;;;;;;5025556;28;20452;-85
2022/08/06 04:24:31;;;;;;;441.37;424.20;;;9.90;99.90;;;;;;5018472;28;20468;-81
2022/08/06 04:27:00;;;;;;;450.03;432.60;;;9.80;99.90;;;;;;5018497;28;20445;-81
2022/08/06 04:29:27;;;;;;;499.93;479.50;;;9.80;99.90;;;;;;5019516;28;20536;-80
2022/08/06 04:31:55;;;;;;;556.90;532.70;;;9.80;99.90;;;;;;5018917;28;20473;-80
2022/08/06 04:34:50;;;;;;;609.37;581.67;;;9.70;99.90;;;;;;5023442;28;20473;-84
2022/08/06 04:37:36;;;;;;;510.67;490.70;;;9.70;99.90;;;;;;5022239;28;21105;-85
2022/08/06 04:40:32;;;;;;;498.83;478.83;;;9.70;99.90;;;;;;5029572;28;20445;-84
2022/08/06 04:42:59;;;;;;;371.07;357.97;;;9.80;99.90;;;;;;5030419;28;20465;-84
2022/08/06 04:45:40;;;;;;;320.87;309.87;;;9.80;99.90;;;;;;5028373;28;20499;-84
2022/08/06 04:48:20;;;;;;;296.87;286.80;;;9.90;99.90;;;;;;5030137;28;20976;-84
2022/08/06 04:50:50;;;;;;;287.40;277.70;;;10.00;99.90;;;;;;5028828;28;20544;-83
2022/08/06 04:53:25;;;;;;;313.17;301.93;;;10.00;99.90;;;;;;5028979;28;20479;-84
2022/08/06 04:56:02;;;;;;;308.47;297.67;;;10.00;99.90;;;;;;5029258;28;20444;-84
2022/08/06 04:58:29;;;;;;;284.67;275.07;;;10.00;99.90;;;;;;5028120;28;20448;-84
2022/08/06 05:01:04;;;;;;;227.47;219.77;;;10.00;99.90;;;;;;5030165;28;20484;-84
2022/08/06 05:03:59;;;;;;;204.20;197.00;;;10.10;99.90;;;;;;5027996;28;20469;-84
2022/08/06 05:09:40;;;;;;;220.53;213.10;;;10.30;99.90;;;;;;5026171;28;20457;-84
2022/08/06 05:12:17;;;;;;;281.27;270.73;;;10.40;99.90;;;;;;5028147;28;20477;-84
2022/08/06 05:18:35;;;;;;;282.93;273.13;;;10.60;99.90;;;;;;4998860;28;20453;-84
2022/08/06 05:21:19;;;;;;;320.83;308.90;;;10.70;99.90;;;;;;5013825;28;20523;-83
2022/08/06 05:23:53;;;;;;;313.77;302.10;;;10.70;99.90;;;;;;5028767;28;20537;-83
2022/08/06 05:26:24;;;;;;;461.17;443.30;;;11.00;99.90;;;;;;5028232;28;20453;-83
2022/08/06 05:29:11;;;;;;;455.07;437.60;;;11.00;99.90;;;;;;5027934;28;20488;-84
2022/08/06 05:31:39;;;;;;;442.73;425.17;;;11.10;99.90;;;;;;5030634;28;20500;-84
2022/08/06 05:34:13;;;;;;;345.43;331.10;;;11.30;99.90;;;;;;5027891;28;20527;-82
2022/08/06 05:36:40;;;;;;;137.33;130.23;;;11.70;99.90;;;;;;5021154;28;20457;-84
2022/08/06 05:39:08;;;;;;;64.67;61.73;;;12.00;99.90;;;;;;5019961;28;20453;-83
2022/08/06 05:41:44;;;;;;;21.10;19.53;;;12.50;99.90;;;;;;5025837;28;20453;-83
2022/08/06 05:44:11;;;;;;;10.90;6.30;;;12.90;99.00;;;;;;5025375;28;20481;-83
2022/08/06 05:46:42;;;;;;;14.13;5.50;;;13.30;96.20;;;;;;5016037;28;20456;-83
2022/08/06 05:49:21;;;;;;;9.43;5.20;;;13.70;92.80;;;;;;5019774;28;20520;-82
2022/08/06 05:51:53;;;;;;;10.57;4.73;;;14.00;90.70;;;;;;5017829;28;20449;-85
2022/08/06 05:54:24;;;;;;;8.30;5.10;;;14.30;89.20;;;;;;5005164;28;20484;-81
2022/08/06 05:56:59;;;;;;;10.60;3.70;;;14.50;82.50;;;;;;5015172;28;20864;-82
2022/08/06 05:59:29;;;;;;;8.13;5.30;;;14.60;80.10;;;;;;5018686;28;20463;-82
2022/08/06 06:01:57;;;;;;;12.13;4.77;;;14.80;81.30;;;;;;5018147;28;20471;-81
2022/08/06 06:04:26;;;;;;;17.47;4.37;;;15.00;80.50;;;;;;5018377;28;20480;-81
2022/08/06 06:06:52;;;;;;;11.17;5.57;;;15.20;78.20;;;;;;5018140;28;20464;-82
2022/08/06 06:09:20;;;;;;;11.03;4.40;;;15.30;76.50;;;;;;5019812;28;20461;-81
2022/08/06 06:12:12;;;;;;;15.80;4.47;;;15.20;73.10;;;;;;5019242;28;20456;-82
2022/08/06 06:14:55;;;;;;;12.43;4.47;;;15.40;72.40;;;;;;5020407;28;20467;-82
2022/08/06 06:17:52;;;;;;;8.73;4.43;;;15.40;72.40;;;;;;5020627;28;20460;-81
2022/08/06 06:20:29;;;;;;;9.03;4.47;;;15.40;73.80;;;;;;5019373;28;20548;-81
2022/08/06 06:23:01;;;;;;;12.10;4.47;;;15.80;74.30;;;;;;5012384;28;20461;-82
2022/08/06 06:25:33;;;;;;;10.10;5.43;;;16.00;74.30;;;;;;5003688;28;20446;-81
2022/08/06 06:28:06;;;;;;;9.53;4.50;;;16.10;70.90;;;;;;5019250;28;20452;-80
2022/08/06 06:30:47;;;;;;;7.20;3.70;;;16.20;68.80;;;;;;5018483;28;20531;-82
2022/08/06 06:33:50;;;;;;;;;;;;;;;;;;;;;
2022/08/06 06:36:27;;;;;;;11.97;4.77;;;16.20;66.30;;;;;;5023094;28;20438;-82
2022/08/06 06:39:04;;;;;;;14.07;4.17;;;16.50;66.90;;;;;;5023018;28;20486;-82
2022/08/06 06:41:36;;;;;;;9.00;4.30;;;16.40;64.00;;;;;;5023794;28;20481;-82
2022/08/06 06:44:18;;;;;;;10.70;4.50;;;16.60;64.20;;;;;;5022238;28;20901;-81
2022/08/06 06:46:55;;;;;;;10.30;4.70;;;16.70;65.90;;;;;;5023666;28;20509;-82
2022/08/06 06:49:28;;;;;;;15.40;5.23;;;16.70;62.10;;;;;;5022147;28;20496;-83
2022/08/06 06:54:46;;;;;;;9.50;4.40;;;17.00;62.10;;;;;;5011745;28;20980;-84
2022/08/06 06:57:21;;;;;;;8.07;4.50;;;16.80;59.60;;;;;;5019838;28;20448;-84
2022/08/06 06:59:53;;;;;;;11.27;3.60;;;16.80;60.50;;;;;;5019361;28;20453;-83
2022/08/06 07:02:25;;;;;;;7.80;4.47;;;17.10;64.10;;;;;;5020414;28;20477;-84
2022/08/06 07:05:02;;;;;;;6.30;3.53;;;17.20;60.70;;;;;;5018679;28;20879;-83
2022/08/06 07:07:31;;;;;;;14.43;4.50;;;17.10;59.00;;;;;;5017693;28;20552;-88
2022/08/06 07:09:59;;;;;;;13.03;4.57;;;17.10;60.00;;;;;;5015289;28;20481;-88
2022/08/06 07:12:29;;;;;;;13.63;4.93;;;17.30;61.00;;;;;;5011771;28;20463;-81
2022/08/06 07:14:58;;;;;;;14.00;4.77;;;17.40;59.40;;;;;;5017285;28;20547;-81
2022/08/06 07:17:28;;;;;;;9.47;4.37;;;17.40;59.10;;;;;;5025060;28;20450;-82
2022/08/06 07:19:58;;;;;;;26.87;4.37;;;17.60;59.70;;;;;;5028012;28;20518;-82
2022/08/06 07:22:26;;;;;;;7.93;4.13;;;17.50;59.50;;;;;;5029566;28;20486;-82
2022/08/06 07:25:00;;;;;;;12.07;4.13;;;17.40;60.60;;;;;;5011370;28;20451;-82
2022/08/06 07:27:29;;;;;;;9.90;4.77;;;17.30;56.30;;;;;;5008251;28;20459;-83
2022/08/06 07:30:02;;;;;;;15.67;4.60;;;17.40;57.30;;;;;;5022449;28;20461;-82
2022/08/06 07:32:32;;;;;;;8.80;4.37;;;17.40;59.00;;;;;;5020867;28;20456;-83
2022/08/06 07:35:00;;;;;;;12.47;3.70;;;17.40;56.70;;;;;;5021613;28;20517;-83
2022/08/06 07:37:32;;;;;;;10.07;3.80;;;17.50;57.10;;;;;;5020093;28;20466;-82
2022/08/06 07:40:02;;;;;;;9.43;4.17;;;17.60;56.90;;;;;;5015676;28;20452;-81
2022/08/06 07:52:03;;;;;;;9.97;3.00;;;18.10;53.60;;;;;;4999768;28;20500;-82
2022/08/06 07:54:31;;;;;;;9.20;2.80;;;18.30;51.60;;;;;;5021114;28;20483;-84
2022/08/06 07:56:58;;;;;;;14.63;3.10;;;18.60;49.60;;;;;;5022590;28;20544;-86
2022/08/06 07:59:26;;;;;;;6.33;2.20;;;18.80;45.50;;;;;;5006619;28;20445;-82
2022/08/06 08:01:53;;;;;;;10.30;2.37;;;18.90;43.30;;;;;;5004151;28;20481;-82
2022/08/06 08:07:07;;;;;;;5.73;1.10;;;18.50;42.10;;;;;;5024267;28;20510;-86
2022/08/06 08:09:36;;;;;;;4.30;1.20;;;18.70;36.00;;;;;;5022372;28;20531;-85
2022/08/06 08:12:04;;;;;;;5.75;1.20;;;19.00;35.90;;;;;;5023242;28;20927;-83
2022/08/06 08:14:31;;;;;;;5.63;1.00;;;19.10;36.00;;;;;;5022615;28;20220;-84
2022/08/06 08:16:58;;;;;;;5.30;1.07;;;19.10;31.40;;;;;;5022024;28;20463;-83
2022/08/06 08:19:30;;;;;;;6.07;1.20;;;19.30;33.90;;;;;;5021337;28;20465;-82
2022/08/06 08:21:58;;;;;;;4.17;1.13;;;19.50;34.80;;;;;;5020519;28;20472;-83
2022/08/06 08:24:36;;;;;;;5.67;1.10;;;19.80;30.60;;;;;;5018946;28;20484;-85
2022/08/06 08:27:10;;;;;;;5.70;1.30;;;19.90;30.60;;;;;;5016464;28;20459;-85
2022/08/06 08:29:37;;;;;;;3.70;0.80;;;20.10;26.20;;;;;;5022271;28;20451;-85
2022/08/06 08:32:05;;;;;;;5.30;1.10;;;20.20;27.20;;;;;;5018708;28;20513;-83
2022/08/06 08:34:35;;;;;;;3.80;0.80;;;20.30;25.30;;;;;;5021281;28;20985;-83
2022/08/06 08:37:02;;;;;;;4.00;0.80;;;20.40;21.40;;;;;;5020080;28;20477;-82
2022/08/06 08:39:30;;;;;;;3.90;0.80;;;20.10;23.60;;;;;;5019844;28;20832;-82
2022/08/06 08:42:06;;;;;;;7.47;1.53;;;20.00;19.70;;;;;;5020114;28;20571;-84
2022/08/06 08:44:34;;;;;;;4.60;0.90;;;20.50;21.80;;;;;;5022137;28;20553;-83
2022/08/06 08:47:01;;;;;;;4.67;0.90;;;20.70;17.40;;;;;;5024198;28;20542;-83
2022/08/06 08:49:39;;;;;;;3.80;0.80;;;20.90;18.20;;;;;;5019374;28;20641;-84
2022/08/06 08:52:08;;;;;;;4.23;1.00;;;20.90;14.80;;;;;;5021367;28;20483;-83
2022/08/06 08:54:36;;;;;;;5.13;0.90;;;20.40;17.40;;;;;;5021915;28;20488;-83
2022/08/06 08:57:04;;;;;;;4.53;1.00;;;20.60;15.30;;;;;;5023489;28;20454;-83
2022/08/06 08:59:33;;;;;;;4.60;1.00;;;21.20;17.30;;;;;;5022376;28;20812;-84
2022/08/06 09:02:00;;;;;;;5.37;1.20;;;21.20;16.00;;;;;;5019549;28;20474;-86
2022/08/06 09:04:31;;;;;;;5.07;1.00;;;21.60;17.30;;;;;;5015647;28;20465;-82
2022/08/06 09:07:02;;;;;;;4.47;0.80;;;21.60;13.40;;;;;;5019413;28;20451;-82
2022/08/06 09:09:31;;;;;;;4.27;0.90;;;21.80;13.50;;;;;;5018827;28;20456;-82
2022/08/06 09:11:58;;;;;;;4.20;0.80;;;21.70;12.20;;;;;;5022928;28;20449;-84
2022/08/06 09:14:25;;;;;;;4.97;0.90;;;21.50;11.30;;;;;;5019114;28;20817;-84
2022/08/06 09:16:58;;;;;;;3.67;0.70;;;21.50;12.00;;;;;;5018204;28;20463;-85
2022/08/06 09:19:28;;;;;;;4.43;0.90;;;21.90;11.70;;;;;;5019349;28;20494;-82
2022/08/06 09:21:55;;;;;;;5.47;1.10;;;21.80;12.10;;;;;;5021795;28;20476;-83
2022/08/06 09:24:24;;;;;;;4.90;0.83;;;22.40;8.40;;;;;;5020305;28;20996;-83
2022/08/06 09:27:11;;;;;;;5.90;0.90;;;22.60;8.60;;;;;;5016032;28;20484;-84
2022/08/06 09:29:49;;;;;;;4.97;0.80;;;22.50;10.40;;;;;;5020738;28;20453;-83
2022/08/06 09:32:36;;;;;;;4.67;0.93;;;23.10;6.80;;;;;;5021118;28;20977;-83
2022/08/06 09:35:04;;;;;;;8.43;1.00;;;22.70;6.50;;;;;;5022797;28;20860;-83
2022/08/06 09:37:31;;;;;;;4.43;0.97;;;23.20;3.60;;;;;;5018980;28;20453;-85
2022/08/06 09:40:12;;;;;;;4.10;0.90;;;23.20;4.30;;;;;;5018565;28;20467;-85
2022/08/06 09:42:40;;;;;;;5.80;1.10;;;23.90;2.20;;;;;;5015145;28;20473;-84
2022/08/06 09:45:08;;;;;;;4.83;0.83;;;23.90;1.00;;;;;;5019925;28;20453;-83
2022/08/06 09:47:37;;;;;;;4.97;0.93;;;24.00;1.20;;;;;;5016782;28;20513;-84
2022/08/06 09:50:05;;;;;;;5.80;0.93;;;24.30;1.00;;;;;;5020194;28;20453;-84
2022/08/06 09:52:31;;;;;;;4.30;1.13;;;25.10;1.00;;;;;;5016777;28;20460;-85
2022/08/06 09:54:59;;;;;;;5.30;1.27;;;24.60;1.00;;;;;;5019738;28;20456;-84
2022/08/06 09:57:45;;;;;;;3.83;0.90;;;24.10;1.00;;;;;;5017439;28;20445;-85
2022/08/06 10:00:29;;;;;;;4.80;1.00;;;24.60;2.50;;;;;;4992671;28;20524;-85
2022/08/06 10:02:59;;;;;;;4.00;0.80;;;24.90;1.00;;;;;;5012560;28;20472;-86
2022/08/06 10:05:27;;;;;;;5.73;1.17;;;25.70;1.00;;;;;;5016470;28;20449;-81
2022/08/06 10:08:05;;;;;;;4.23;1.03;;;25.90;1.00;;;;;;5013556;28;20449;-81
2022/08/06 10:10:46;;;;;;;4.60;1.13;;;26.20;1.00;;;;;;5011285;28;20452;-81
2022/08/06 10:13:15;;;;;;;4.70;1.00;;;26.00;1.00;;;;;;5015320;28;21170;-82
2022/08/06 10:15:44;;;;;;;5.10;0.90;;;25.10;1.00;;;;;;5017788;28;20448;-81
2022/08/06 10:18:11;;;;;;;4.77;1.00;;;25.60;1.00;;;;;;5017276;28;20452;-81
2022/08/06 10:20:38;;;;;;;5.77;0.80;;;25.30;1.00;;;;;;5016740;28;20449;-81
2022/08/06 10:23:09;;;;;;;4.73;0.70;;;25.90;1.00;;;;;;5016513;28;20485;-81
2022/08/06 10:25:37;;;;;;;6.73;1.30;;;25.90;1.00;;;;;;5017715;28;20895;-81
2022/08/06 10:28:05;;;;;;;4.23;0.93;;;26.10;1.00;;;;;;5016829;28;20461;-81
2022/08/06 10:30:33;;;;;;;5.20;0.90;;;25.90;1.00;;;;;;5017235;28;20460;-81
2022/08/06 10:33:06;;;;;;;5.53;1.00;;;25.20;1.00;;;;;;5016770;28;20548;-80
2022/08/06 10:35:33;;;;;;;4.20;0.70;;;26.70;1.00;;;;;;5017085;28;20515;-81
2022/08/06 10:38:04;;;;;;;3.80;0.70;;;27.10;1.00;;;;;;5016561;28;20475;-82
2022/08/06 10:40:31;;;;;;;4.17;0.70;;;26.10;1.00;;;;;;5016633;28;20484;-80
2022/08/06 10:43:00;;;;;;;14.33;7.30;;;25.10;1.00;;;;;;5015282;28;22005;-82
2022/08/06 10:45:29;;;;;;;5.50;0.90;;;25.70;1.00;;;;;;5015807;28;20453;-81
2022/08/06 10:47:57;;;;;;;4.37;0.90;;;26.50;1.00;;;;;;5016765;28;20468;-81
2022/08/06 10:50:24;;;;;;;4.30;0.90;;;25.80;1.00;;;;;;5016107;28;20448;-80
2022/08/06 10:52:52;;;;;;;4.03;1.07;;;26.50;1.00;;;;;;5017163;28;20476;-81
2022/08/06 10:55:20;;;;;;;4.10;0.77;;;27.10;1.00;;;;;;5016623;28;20512;-82
2022/08/06 10:57:47;;;;;;;3.90;0.80;;;25.80;1.00;;;;;;5017196;28;20453;-82
2022/08/06 11:00:14;;;;;;;4.10;0.80;;;25.90;1.00;;;;;;5018981;28;20472;-83
2022/08/06 11:02:51;;;;;;;4.00;0.73;;;25.80;1.00;;;;;;5018799;28;20477;-83
2022/08/06 11:05:21;;;;;;;8.27;0.90;;;27.00;1.00;;;;;;5019628;28;20457;-83
2022/08/06 11:08:22;;;;;;;3.90;0.77;;;26.70;1.00;;;;;;5018818;28;20449;-82
2022/08/06 11:11:05;;;;;;;5.10;0.83;;;27.60;1.00;;;;;;5019248;28;20456;-83
2022/08/06 11:13:39;;;;;;;6.90;1.00;;;26.10;1.00;;;;;;5019191;28;20479;-82
2022/08/06 11:16:07;;;;;;;4.87;0.80;;;25.40;1.00;;;;;;5019438;28;21111;-83
2022/08/06 11:18:47;;;;;;;4.80;0.70;;;25.70;1.00;;;;;;5020008;28;20456;-85
2022/08/06 11:21:36;;;;;;;4.40;0.63;;;25.70;1.00;;;;;;5017277;28;20554;-83
2022/08/06 11:24:03;;;;;;;4.00;0.70;;;25.40;1.00;;;;;;5018134;28;21368;-84
2022/08/06 11:26:43;;;;;;;4.20;0.73;;;25.80;1.00;;;;;;5022933;28;20459;-84
2022/08/06 11:29:12;;;;;;;4.40;0.80;;;26.90;1.00;;;;;;5028909;28;20233;-84
2022/08/06 11:31:46;;;;;;;5.17;1.00;;;27.40;1.00;;;;;;5027731;28;20461;-85
2022/08/06 11:34:19;;;;;;;4.40;0.90;;;26.60;1.00;;;;;;5028354;28;20469;-85
2022/08/06 11:37:06;;;;;;;3.90;0.83;;;27.90;1.00;;;;;;5028391;28;20457;-84
2022/08/06 11:40:11;;;;;;;5.50;0.90;;;28.60;1.00;;;;;;5027679;28;20439;-85
2022/08/06 11:42:42;;;;;;;4.10;0.70;;;27.40;1.00;;;;;;5027306;28;20476;-85
2022/08/06 11:45:11;;;;;;;4.30;1.03;;;26.90;1.00;;;;;;5026449;28;20453;-84
2022/08/06 11:48:04;;;;;;;3.80;0.70;;;25.60;1.00;;;;;;5026885;28;20453;-84
2022/08/06 11:50:33;;;;;;;5.07;0.83;;;25.20;1.00;;;;;;5027907;28;20477;-84
2022/08/06 11:53:03;;;;;;;5.00;1.20;;;23.90;1.00;;;;;;5026207;28;20473;-84
2022/08/06 11:56:03;;;;;;;4.23;0.93;;;23.00;1.00;;;;;;5028529;28;20457;-84
2022/08/06 11:58:30;;;;;;;4.47;0.77;;;23.50;1.00;;;;;;5028409;28;20484;-84
2022/08/06 12:00:59;;;;;;;5.07;0.80;;;24.00;1.00;;;;;;5028090;28;20476;-83
2022/08/06 12:04:16;;;;;;;;;;;;;;;;;;;;;
2022/08/06 12:06:50;;;;;;;9.00;0.93;;;26.90;1.00;;;;;;5027149;28;20453;-83
2022/08/06 12:09:18;;;;;;;5.03;1.20;;;25.40;1.00;;;;;;5027879;28;20520;-83
2022/08/06 12:11:45;;;;;;;4.50;1.13;;;25.50;1.00;;;;;;5027720;28;20453;-84
2022/08/06 12:14:39;;;;;;;4.07;0.80;;;24.50;1.00;;;;;;5027442;28;20496;-85
2022/08/06 12:17:12;;;;;;;4.50;0.87;;;25.80;1.00;;;;;;5028254;28;20460;-84
2022/08/06 12:19:45;;;;;;;4.00;1.00;;;27.70;1.00;;;;;;5026841;28;20457;-84
2022/08/06 12:22:15;;;;;;;4.70;1.00;;;29.60;1.00;;;;;;5026598;28;20476;-84
2022/08/06 12:24:45;;;;;;;3.90;0.70;;;29.90;1.00;;;;;;5025605;28;20560;-84
2022/08/06 12:27:13;;;;;;;4.83;0.90;;;29.70;1.00;;;;;;5026715;28;20524;-85
2022/08/06 12:29:40;;;;;;;4.60;0.83;;;28.60;1.00;;;;;;5025309;28;20525;-84
2022/08/06 12:32:21;;;;;;;4.63;1.00;;;27.40;1.00;;;;;;5026414;28;20464;-84
2022/08/06 12:34:48;;;;;;;4.50;0.90;;;27.30;1.00;;;;;;5027216;28;20452;-84
2022/08/06 12:37:17;;;;;;;5.70;1.10;;;25.80;1.00;;;;;;5027453;28;20456;-84
2022/08/06 12:45:31;;;;;;;3.87;0.70;;;26.70;1.00;;;;;;5026453;28;20521;-84
2022/08/06 12:47:59;;;;;;;4.17;0.87;;;26.60;1.00;;;;;;5026386;28;20966;-84
2022/08/06 12:50:27;;;;;;;4.20;0.80;;;25.70;1.00;;;;;;5026567;28;20462;-84
2022/08/06 12:53:34;;;;;;;4.07;0.83;;;27.00;1.00;;;;;;5026062;28;20468;-84
2022/08/06 12:56:03;;;;;;;4.47;0.93;;;26.10;1.00;;;;;;5027253;28;20468;-84
2022/08/06 12:58:34;;;;;;;4.20;0.90;;;27.80;1.00;;;;;;5026565;28;20949;-84
2022/08/06 13:01:02;;;;;;;4.10;0.80;;;26.80;1.00;;;;;;5027109;28;20457;-84
2022/08/06 13:03:30;;;;;;;5.23;0.80;;;25.50;1.00;;;;;;5026849;28;20484;-84
2022/08/06 13:06:00;;;;;;;4.40;1.10;;;25.40;1.00;;;;;;5027011;28;20457;-84
2022/08/06 13:09:15;;;;;;;8.30;0.80;;;25.60;1.00;;;;;;5026856;28;20455;-85
2022/08/06 13:11:42;;;;;;;4.23;0.80;;;26.10;1.00;;;;;;5026958;28;20464;-84
2022/08/06 13:14:49;;;;;;;6.67;1.10;;;26.50;1.00;;;;;;5024993;28;21019;-84
2022/08/06 13:17:22;;;;;;;3.87;0.77;;;28.40;1.00;;;;;;5008435;28;20457;-84
2022/08/06 13:19:53;;;;;;;6.10;0.80;;;30.80;1.00;;;;;;5025646;28;20459;-83
2022/08/06 13:22:48;;;;;;;5.03;0.90;;;28.20;1.00;;;;;;5043251;23;20445;-84
2022/08/06 13:25:19;;;;;;;3.90;0.80;;;26.30;1.00;;;;;;5005298;28;20474;-84
2022/08/06 13:27:46;;;;;;;4.57;1.00;;;24.80;1.00;;;;;;5007444;28;20445;-85
2022/08/06 13:30:13;;;;;;;4.30;0.80;;;24.10;1.00;;;;;;5007405;28;20481;-83
2022/08/06 13:32:40;;;;;;;4.57;0.90;;;23.90;1.00;;;;;;5006973;28;20482;-84
2022/08/06 13:35:12;;;;;;;3.67;0.70;;;25.10;1.00;;;;;;5007234;28;20458;-84
2022/08/06 13:38:26;;;;;;;5.00;0.90;;;26.50;1.00;;;;;;5007153;28;20549;-84
2022/08/06 13:41:06;;;;;;;5.00;0.83;;;28.00;1.00;;;;;;4970906;28;20492;-84
2022/08/06 13:44:11;;;;;;;4.10;0.80;;;28.60;1.00;;;;;;5005719;28;20477;-82
2022/08/06 13:46:44;;;;;;;4.00;0.90;;;28.60;1.00;;;;;;4975471;28;20472;-84
2022/08/06 13:49:25;;;;;;;6.10;0.93;;;27.70;1.00;;;;;;5006708;28;20446;-84